sensor_id;sensor_type;location;lat;lon;timestamp;P1;durP1;ratioP1;P2;durP2;ratioP2
9424;SDS011;17139;52.140;11.636;2022-07-10T00:01:36;2.00;;;1.00;;
9424;SDS011;17139;52.140;11.636;2022-07-10T00:04:03;2.08;;;1.20;;
9424;SDS011;17139;52.140;11.636;2022-07-10T00:06:30;2.03;;;1.30;;
9424;SDS011;17139;52.140;11.636;2022-07-10T00:08:58;1.90;;;1.00;;
9424;SDS011;17139;52.140;11.636;2022-07-10T00:11:25;1.90;;;1.20;;
9424;SDS011;17139;52.140;11.636;2022-07-10T00:13:52;3.17;;;1.15;;
9424;SDS011;17139;52.140;11.636;2022-07-10T00:16:19;2.60;;;1.13;;
9424;SDS011;17139;52.140;11.636;2022-07-10T00:18:47;2.50;;;1.20;;
9424;SDS011;17139;52.140;11.636;2022-07-10T00:21:15;1.75;;;1.42;;
9424;SDS011;17139;52.140;11.636;2022-07-10T00:23:42;2.67;;;0.98;;
9424;SDS011;17139;52.140;11.636;2022-07-10T00:26:09;4.70;;;0.98;;
9424;SDS011;17139;52.140;11.636;2022-07-10T00:28:36;1.27;;;1.00;;
9424;SDS011;17139;52.140;11.636;2022-07-10T00:31:06;1.30;;;1.20;;
9424;SDS011;17139;52.140;11.636;2022-07-10T00:33:35;1.95;;;1.17;;
9424;SDS011;17139;52.140;11.636;2022-07-10T00:36:05;6.22;;;1.38;;
9424;SDS011;17139;52.140;11.636;2022-07-10T00:38:33;2.30;;;1.10;;
9424;SDS011;17139;52.140;11.636;2022-07-10T00:41:00;1.35;;;1.00;;
9424;SDS011;17139;52.140;11.636;2022-07-10T00:43:28;0.98;;;0.95;;
9424;SDS011;17139;52.140;11.636;2022-07-10T00:45:55;2.88;;;1.50;;
9424;SDS011;17139;52.140;11.636;2022-07-10T00:48:22;1.92;;;1.08;;
9424;SDS011;17139;52.140;11.636;2022-07-10T00:50:49;1.05;;;1.00;;
9424;SDS011;17139;52.140;11.636;2022-07-10T00:53:18;6.20;;;1.27;;
9424;SDS011;17139;52.140;11.636;2022-07-10T00:55:45;1.90;;;1.00;;
9424;SDS011;17139;52.140;11.636;2022-07-10T00:58:13;1.45;;;1.25;;
9424;SDS011;17139;52.140;11.636;2022-07-10T01:00:40;4.28;;;1.30;;
9424;SDS011;17139;52.140;11.636;2022-07-10T01:03:08;1.17;;;1.10;;
9424;SDS011;17139;52.140;11.636;2022-07-10T01:05:35;4.28;;;1.00;;
9424;SDS011;17139;52.140;11.636;2022-07-10T01:08:04;2.88;;;1.23;;
9424;SDS011;17139;52.140;11.636;2022-07-10T01:10:32;1.55;;;1.25;;
9424;SDS011;17139;52.140;11.636;2022-07-10T01:12:59;2.38;;;1.30;;
9424;SDS011;17139;52.140;11.636;2022-07-10T01:15:28;2.60;;;1.45;;
9424;SDS011;17139;52.140;11.636;2022-07-10T01:17:55;2.50;;;1.70;;
9424;SDS011;17139;52.140;11.636;2022-07-10T01:20:29;2.05;;;1.48;;
9424;SDS011;17139;52.140;11.636;2022-07-10T01:22:58;3.70;;;1.35;;
9424;SDS011;17139;52.140;11.636;2022-07-10T01:25:26;2.47;;;1.80;;
9424;SDS011;17139;52.140;11.636;2022-07-10T01:27:53;2.28;;;1.67;;
9424;SDS011;17139;52.140;11.636;2022-07-10T01:30:20;2.78;;;1.45;;
9424;SDS011;17139;52.140;11.636;2022-07-10T01:32:48;1.80;;;1.70;;
9424;SDS011;17139;52.140;11.636;2022-07-10T01:35:15;1.63;;;1.52;;
9424;SDS011;17139;52.140;11.636;2022-07-10T01:37:42;2.42;;;1.40;;
9424;SDS011;17139;52.140;11.636;2022-07-10T01:40:11;3.10;;;1.25;;
9424;SDS011;17139;52.140;11.636;2022-07-10T01:42:39;4.68;;;1.40;;
9424;SDS011;17139;52.140;11.636;2022-07-10T01:45:06;3.58;;;1.40;;
9424;SDS011;17139;52.140;11.636;2022-07-10T01:47:34;1.90;;;0.90;;
9424;SDS011;17139;52.140;11.636;2022-07-10T01:50:02;4.35;;;1.65;;
9424;SDS011;17139;52.140;11.636;2022-07-10T01:52:30;3.08;;;1.38;;
9424;SDS011;17139;52.140;11.636;2022-07-10T01:54:57;3.78;;;1.15;;
9424;SDS011;17139;52.140;11.636;2022-07-10T01:57:26;2.50;;;0.90;;
9424;SDS011;17139;52.140;11.636;2022-07-10T01:59:53;6.13;;;1.50;;
9424;SDS011;17139;52.140;11.636;2022-07-10T02:02:20;2.40;;;1.02;;
9424;SDS011;17139;52.140;11.636;2022-07-10T02:04:47;2.67;;;1.23;;
9424;SDS011;17139;52.140;11.636;2022-07-10T02:07:15;3.10;;;1.20;;
9424;SDS011;17139;52.140;11.636;2022-07-10T02:09:44;1.80;;;1.08;;
9424;SDS011;17139;52.140;11.636;2022-07-10T02:12:12;3.72;;;1.52;;
9424;SDS011;17139;52.140;11.636;2022-07-10T02:14:41;2.33;;;1.08;;
9424;SDS011;17139;52.140;11.636;2022-07-10T02:17:09;3.08;;;1.27;;
9424;SDS011;17139;52.140;11.636;2022-07-10T02:19:37;3.87;;;1.00;;
9424;SDS011;17139;52.140;11.636;2022-07-10T02:22:04;2.55;;;1.15;;
9424;SDS011;17139;52.140;11.636;2022-07-10T02:24:31;1.65;;;0.98;;
9424;SDS011;17139;52.140;11.636;2022-07-10T02:26:58;3.40;;;1.20;;
9424;SDS011;17139;52.140;11.636;2022-07-10T02:29:25;2.65;;;1.05;;
9424;SDS011;17139;52.140;11.636;2022-07-10T02:31:55;1.67;;;1.20;;
9424;SDS011;17139;52.140;11.636;2022-07-10T02:34:22;1.17;;;1.10;;
9424;SDS011;17139;52.140;11.636;2022-07-10T02:36:49;4.78;;;1.15;;
9424;SDS011;17139;52.140;11.636;2022-07-10T02:39:16;1.52;;;1.10;;
9424;SDS011;17139;52.140;11.636;2022-07-10T02:41:44;2.47;;;1.25;;
9424;SDS011;17139;52.140;11.636;2022-07-10T02:44:11;5.20;;;1.10;;
9424;SDS011;17139;52.140;11.636;2022-07-10T02:46:38;2.15;;;0.70;;
9424;SDS011;17139;52.140;11.636;2022-07-10T02:49:06;1.77;;;1.08;;
9424;SDS011;17139;52.140;11.636;2022-07-10T02:51:34;4.57;;;1.17;;
9424;SDS011;17139;52.140;11.636;2022-07-10T02:54:01;1.27;;;0.90;;
9424;SDS011;17139;52.140;11.636;2022-07-10T02:56:28;1.25;;;1.00;;
9424;SDS011;17139;52.140;11.636;2022-07-10T02:58:55;4.03;;;0.93;;
9424;SDS011;17139;52.140;11.636;2022-07-10T03:01:23;3.05;;;0.98;;
9424;SDS011;17139;52.140;11.636;2022-07-10T03:03:50;0.70;;;0.70;;
9424;SDS011;17139;52.140;11.636;2022-07-10T03:06:18;0.98;;;0.88;;
9424;SDS011;17139;52.140;11.636;2022-07-10T03:08:45;4.82;;;0.90;;
9424;SDS011;17139;52.140;11.636;2022-07-10T03:11:12;2.75;;;0.73;;
9424;SDS011;17139;52.140;11.636;2022-07-10T03:13:40;1.85;;;0.95;;
9424;SDS011;17139;52.140;11.636;2022-07-10T03:16:07;0.60;;;0.60;;
9424;SDS011;17139;52.140;11.636;2022-07-10T03:18:34;0.82;;;0.73;;
9424;SDS011;17139;52.140;11.636;2022-07-10T03:21:01;2.00;;;0.90;;
9424;SDS011;17139;52.140;11.636;2022-07-10T03:23:31;1.23;;;0.70;;
9424;SDS011;17139;52.140;11.636;2022-07-10T03:25:58;0.73;;;0.70;;
9424;SDS011;17139;52.140;11.636;2022-07-10T03:28:25;3.05;;;1.17;;
9424;SDS011;17139;52.140;11.636;2022-07-10T03:30:53;0.52;;;0.52;;
9424;SDS011;17139;52.140;11.636;2022-07-10T03:33:20;0.57;;;0.55;;
9424;SDS011;17139;52.140;11.636;2022-07-10T03:35:47;2.40;;;0.50;;
9424;SDS011;17139;52.140;11.636;2022-07-10T03:38:14;3.03;;;0.70;;
9424;SDS011;17139;52.140;11.636;2022-07-10T03:40:43;0.65;;;0.60;;
9424;SDS011;17139;52.140;11.636;2022-07-10T03:43:13;0.40;;;0.40;;
9424;SDS011;17139;52.140;11.636;2022-07-10T03:45:40;1.00;;;0.45;;
9424;SDS011;17139;52.140;11.636;2022-07-10T03:48:07;0.47;;;0.47;;
9424;SDS011;17139;52.140;11.636;2022-07-10T03:50:34;0.87;;;0.77;;
9424;SDS011;17139;52.140;11.636;2022-07-10T03:53:02;0.55;;;0.55;;
9424;SDS011;17139;52.140;11.636;2022-07-10T03:55:29;1.77;;;0.90;;
9424;SDS011;17139;52.140;11.636;2022-07-10T03:57:57;0.40;;;0.40;;
9424;SDS011;17139;52.140;11.636;2022-07-10T04:00:27;0.80;;;0.80;;
9424;SDS011;17139;52.140;11.636;2022-07-10T04:02:57;3.58;;;1.00;;
9424;SDS011;17139;52.140;11.636;2022-07-10T04:05:25;1.42;;;1.00;;
9424;SDS011;17139;52.140;11.636;2022-07-10T04:07:54;0.98;;;0.90;;
9424;SDS011;17139;52.140;11.636;2022-07-10T04:10:22;0.70;;;0.70;;
9424;SDS011;17139;52.140;11.636;2022-07-10T04:12:50;0.70;;;0.60;;
9424;SDS011;17139;52.140;11.636;2022-07-10T04:15:18;1.10;;;0.73;;
9424;SDS011;17139;52.140;11.636;2022-07-10T04:17:46;0.97;;;0.60;;
9424;SDS011;17139;52.140;11.636;2022-07-10T04:20:14;0.50;;;0.50;;
9424;SDS011;17139;52.140;11.636;2022-07-10T04:22:42;2.67;;;0.90;;
9424;SDS011;17139;52.140;11.636;2022-07-10T04:25:10;0.80;;;0.80;;
9424;SDS011;17139;52.140;11.636;2022-07-10T04:27:38;0.80;;;0.80;;
9424;SDS011;17139;52.140;11.636;2022-07-10T04:30:06;1.10;;;0.60;;
9424;SDS011;17139;52.140;11.636;2022-07-10T04:32:35;1.25;;;0.75;;
9424;SDS011;17139;52.140;11.636;2022-07-10T04:35:02;0.70;;;0.70;;
9424;SDS011;17139;52.140;11.636;2022-07-10T04:37:30;3.90;;;0.75;;
9424;SDS011;17139;52.140;11.636;2022-07-10T04:39:59;0.93;;;0.80;;
9424;SDS011;17139;52.140;11.636;2022-07-10T04:42:27;1.58;;;1.08;;
9424;SDS011;17139;52.140;11.636;2022-07-10T04:44:54;3.33;;;0.80;;
9424;SDS011;17139;52.140;11.636;2022-07-10T04:47:21;3.43;;;1.00;;
9424;SDS011;17139;52.140;11.636;2022-07-10T04:49:50;4.60;;;1.30;;
9424;SDS011;17139;52.140;11.636;2022-07-10T04:52:17;2.37;;;1.07;;
9424;SDS011;17139;52.140;11.636;2022-07-10T04:54:44;2.38;;;1.10;;
9424;SDS011;17139;52.140;11.636;2022-07-10T04:57:11;2.27;;;1.07;;
9424;SDS011;17139;52.140;11.636;2022-07-10T04:59:39;1.30;;;1.08;;
9424;SDS011;17139;52.140;11.636;2022-07-10T05:02:06;5.45;;;1.30;;
9424;SDS011;17139;52.140;11.636;2022-07-10T05:04:33;3.58;;;0.90;;
9424;SDS011;17139;52.140;11.636;2022-07-10T05:07:02;2.30;;;1.20;;
9424;SDS011;17139;52.140;11.636;2022-07-10T05:09:29;0.83;;;0.83;;
9424;SDS011;17139;52.140;11.636;2022-07-10T05:11:57;0.88;;;0.88;;
9424;SDS011;17139;52.140;11.636;2022-07-10T05:14:24;4.80;;;1.35;;
9424;SDS011;17139;52.140;11.636;2022-07-10T05:16:52;2.75;;;0.90;;
9424;SDS011;17139;52.140;11.636;2022-07-10T05:19:19;5.38;;;1.13;;
9424;SDS011;17139;52.140;11.636;2022-07-10T05:21:46;3.80;;;1.17;;
9424;SDS011;17139;52.140;11.636;2022-07-10T05:24:15;3.58;;;1.02;;
9424;SDS011;17139;52.140;11.636;2022-07-10T05:26:42;1.02;;;0.80;;
9424;SDS011;17139;52.140;11.636;2022-07-10T05:29:09;2.05;;;1.20;;
9424;SDS011;17139;52.140;11.636;2022-07-10T05:31:38;1.23;;;1.10;;
9424;SDS011;17139;52.140;11.636;2022-07-10T05:34:05;2.08;;;1.10;;
9424;SDS011;17139;52.140;11.636;2022-07-10T05:36:32;4.22;;;1.30;;
9424;SDS011;17139;52.140;11.636;2022-07-10T05:38:59;2.90;;;1.13;;
9424;SDS011;17139;52.140;11.636;2022-07-10T05:41:28;1.45;;;1.23;;
9424;SDS011;17139;52.140;11.636;2022-07-10T05:43:57;3.38;;;1.10;;
9424;SDS011;17139;52.140;11.636;2022-07-10T05:46:25;2.60;;;1.33;;
9424;SDS011;17139;52.140;11.636;2022-07-10T05:48:52;0.90;;;0.90;;
9424;SDS011;17139;52.140;11.636;2022-07-10T05:51:19;1.75;;;1.15;;
9424;SDS011;17139;52.140;11.636;2022-07-10T05:53:46;3.10;;;1.17;;
9424;SDS011;17139;52.140;11.636;2022-07-10T05:56:14;5.03;;;1.08;;
9424;SDS011;17139;52.140;11.636;2022-07-10T05:58:42;2.03;;;0.85;;
9424;SDS011;17139;52.140;11.636;2022-07-10T06:01:09;2.38;;;1.20;;
9424;SDS011;17139;52.140;11.636;2022-07-10T06:03:37;3.25;;;0.98;;
9424;SDS011;17139;52.140;11.636;2022-07-10T06:06:04;0.85;;;0.85;;
9424;SDS011;17139;52.140;11.636;2022-07-10T06:08:32;1.80;;;1.20;;
9424;SDS011;17139;52.140;11.636;2022-07-10T06:10:59;0.93;;;0.85;;
9424;SDS011;17139;52.140;11.636;2022-07-10T06:13:26;5.55;;;1.40;;
9424;SDS011;17139;52.140;11.636;2022-07-10T06:15:55;1.20;;;1.05;;
9424;SDS011;17139;52.140;11.636;2022-07-10T06:18:22;4.03;;;1.13;;
9424;SDS011;17139;52.140;11.636;2022-07-10T06:20:49;2.33;;;1.10;;
9424;SDS011;17139;52.140;11.636;2022-07-10T06:23:16;3.78;;;1.20;;
9424;SDS011;17139;52.140;11.636;2022-07-10T06:25:43;1.27;;;1.13;;
9424;SDS011;17139;52.140;11.636;2022-07-10T06:28:11;2.88;;;1.15;;
9424;SDS011;17139;52.140;11.636;2022-07-10T06:30:39;4.47;;;1.10;;
9424;SDS011;17139;52.140;11.636;2022-07-10T06:33:08;3.03;;;1.02;;
9424;SDS011;17139;52.140;11.636;2022-07-10T06:35:35;1.85;;;1.08;;
9424;SDS011;17139;52.140;11.636;2022-07-10T06:38:02;2.05;;;1.08;;
9424;SDS011;17139;52.140;11.636;2022-07-10T06:40:29;2.03;;;1.20;;
9424;SDS011;17139;52.140;11.636;2022-07-10T06:43:01;5.93;;;1.00;;
9424;SDS011;17139;52.140;11.636;2022-07-10T06:45:29;4.22;;;1.20;;
9424;SDS011;17139;52.140;11.636;2022-07-10T06:47:56;2.70;;;1.35;;
9424;SDS011;17139;52.140;11.636;2022-07-10T06:50:26;2.55;;;1.10;;
9424;SDS011;17139;52.140;11.636;2022-07-10T06:52:55;2.35;;;1.20;;
9424;SDS011;17139;52.140;11.636;2022-07-10T06:55:23;1.52;;;1.10;;
9424;SDS011;17139;52.140;11.636;2022-07-10T06:57:50;2.10;;;1.10;;
9424;SDS011;17139;52.140;11.636;2022-07-10T07:00:18;1.83;;;1.20;;
9424;SDS011;17139;52.140;11.636;2022-07-10T07:02:45;1.25;;;1.10;;
9424;SDS011;17139;52.140;11.636;2022-07-10T07:05:12;4.43;;;1.38;;
9424;SDS011;17139;52.140;11.636;2022-07-10T07:07:41;1.75;;;1.20;;
9424;SDS011;17139;52.140;11.636;2022-07-10T07:10:08;4.50;;;1.30;;
9424;SDS011;17139;52.140;11.636;2022-07-10T07:12:37;1.17;;;1.08;;
9424;SDS011;17139;52.140;11.636;2022-07-10T07:15:05;3.40;;;1.37;;
9424;SDS011;17139;52.140;11.636;2022-07-10T07:17:34;2.40;;;1.50;;
9424;SDS011;17139;52.140;11.636;2022-07-10T07:20:22;2.75;;;1.20;;
9424;SDS011;17139;52.140;11.636;2022-07-10T07:23:09;2.67;;;1.50;;
9424;SDS011;17139;52.140;11.636;2022-07-10T07:25:36;1.48;;;1.38;;
9424;SDS011;17139;52.140;11.636;2022-07-10T07:28:05;2.13;;;1.40;;
9424;SDS011;17139;52.140;11.636;2022-07-10T07:30:32;3.55;;;1.35;;
9424;SDS011;17139;52.140;11.636;2022-07-10T07:33:00;3.35;;;1.73;;
9424;SDS011;17139;52.140;11.636;2022-07-10T07:35:27;1.50;;;1.40;;
9424;SDS011;17139;52.140;11.636;2022-07-10T07:37:55;4.18;;;1.50;;
9424;SDS011;17139;52.140;11.636;2022-07-10T07:40:23;3.65;;;1.50;;
9424;SDS011;17139;52.140;11.636;2022-07-10T07:42:50;3.75;;;1.80;;
9424;SDS011;17139;52.140;11.636;2022-07-10T07:45:18;3.33;;;1.60;;
9424;SDS011;17139;52.140;11.636;2022-07-10T07:47:46;4.65;;;1.60;;
9424;SDS011;17139;52.140;11.636;2022-07-10T07:50:15;3.70;;;1.75;;
9424;SDS011;17139;52.140;11.636;2022-07-10T07:52:44;8.00;;;2.10;;
9424;SDS011;17139;52.140;11.636;2022-07-10T07:55:11;2.72;;;1.65;;
9424;SDS011;17139;52.140;11.636;2022-07-10T07:57:41;2.85;;;1.50;;
9424;SDS011;17139;52.140;11.636;2022-07-10T08:00:09;5.93;;;1.30;;
9424;SDS011;17139;52.140;11.636;2022-07-10T08:02:37;3.80;;;1.85;;
9424;SDS011;17139;52.140;11.636;2022-07-10T08:05:05;2.53;;;1.55;;
9424;SDS011;17139;52.140;11.636;2022-07-10T08:07:34;3.25;;;1.70;;
9424;SDS011;17139;52.140;11.636;2022-07-10T08:10:03;2.67;;;1.52;;
9424;SDS011;17139;52.140;11.636;2022-07-10T08:12:31;5.50;;;1.40;;
9424;SDS011;17139;52.140;11.636;2022-07-10T08:15:00;4.35;;;1.42;;
9424;SDS011;17139;52.140;11.636;2022-07-10T08:17:28;3.80;;;1.58;;
9424;SDS011;17139;52.140;11.636;2022-07-10T08:19:55;5.00;;;1.90;;
9424;SDS011;17139;52.140;11.636;2022-07-10T08:22:22;4.35;;;1.95;;
9424;SDS011;17139;52.140;11.636;2022-07-10T08:24:49;4.40;;;1.70;;
9424;SDS011;17139;52.140;11.636;2022-07-10T08:27:16;4.60;;;1.85;;
9424;SDS011;17139;52.140;11.636;2022-07-10T08:29:43;7.00;;;1.70;;
9424;SDS011;17139;52.140;11.636;2022-07-10T08:32:12;4.05;;;1.95;;
9424;SDS011;17139;52.140;11.636;2022-07-10T08:34:39;5.68;;;1.90;;
9424;SDS011;17139;52.140;11.636;2022-07-10T08:37:07;1.20;;;1.08;;
9424;SDS011;17139;52.140;11.636;2022-07-10T08:39:34;4.70;;;2.13;;
9424;SDS011;17139;52.140;11.636;2022-07-10T08:42:01;1.85;;;1.58;;
9424;SDS011;17139;52.140;11.636;2022-07-10T08:44:30;3.30;;;1.60;;
9424;SDS011;17139;52.140;11.636;2022-07-10T08:46:58;8.05;;;2.47;;
9424;SDS011;17139;52.140;11.636;2022-07-10T08:49:27;2.95;;;1.33;;
9424;SDS011;17139;52.140;11.636;2022-07-10T08:51:57;5.03;;;1.88;;
9424;SDS011;17139;52.140;11.636;2022-07-10T08:54:25;1.33;;;1.25;;
9424;SDS011;17139;52.140;11.636;2022-07-10T08:56:56;3.03;;;1.75;;
9424;SDS011;17139;52.140;11.636;2022-07-10T08:59:24;2.33;;;1.88;;
9424;SDS011;17139;52.140;11.636;2022-07-10T09:01:52;2.33;;;1.30;;
9424;SDS011;17139;52.140;11.636;2022-07-10T09:04:21;3.05;;;1.83;;
9424;SDS011;17139;52.140;11.636;2022-07-10T09:06:52;1.38;;;1.27;;
9424;SDS011;17139;52.140;11.636;2022-07-10T09:09:21;3.80;;;1.40;;
9424;SDS011;17139;52.140;11.636;2022-07-10T09:11:55;7.05;;;1.88;;
9424;SDS011;17139;52.140;11.636;2022-07-10T09:14:24;5.20;;;1.90;;
9424;SDS011;17139;52.140;11.636;2022-07-10T09:16:54;2.47;;;1.27;;
9424;SDS011;17139;52.140;11.636;2022-07-10T09:19:22;3.58;;;1.65;;
9424;SDS011;17139;52.140;11.636;2022-07-10T09:21:52;4.40;;;1.60;;
9424;SDS011;17139;52.140;11.636;2022-07-10T09:24:21;6.95;;;2.00;;
9424;SDS011;17139;52.140;11.636;2022-07-10T09:26:57;3.60;;;1.45;;
9424;SDS011;17139;52.140;11.636;2022-07-10T09:29:28;1.85;;;1.33;;
9424;SDS011;17139;52.140;11.636;2022-07-10T09:31:57;8.15;;;1.98;;
9424;SDS011;17139;52.140;11.636;2022-07-10T09:34:35;4.13;;;2.15;;
9424;SDS011;17139;52.140;11.636;2022-07-10T09:37:18;2.75;;;1.67;;
9424;SDS011;17139;52.140;11.636;2022-07-10T09:39:54;2.13;;;1.38;;
9424;SDS011;17139;52.140;11.636;2022-07-10T09:42:29;2.63;;;1.92;;
9424;SDS011;17139;52.140;11.636;2022-07-10T09:45:12;4.07;;;2.53;;
9424;SDS011;17139;52.140;11.636;2022-07-10T09:47:42;5.97;;;2.53;;
9424;SDS011;17139;52.140;11.636;2022-07-10T09:50:20;2.72;;;1.70;;
9424;SDS011;17139;52.140;11.636;2022-07-10T09:52:54;2.90;;;1.77;;
9424;SDS011;17139;52.140;11.636;2022-07-10T09:55:23;4.83;;;2.30;;
9424;SDS011;17139;52.140;11.636;2022-07-10T09:57:55;3.80;;;1.63;;
9424;SDS011;17139;52.140;11.636;2022-07-10T10:00:24;7.53;;;1.67;;
9424;SDS011;17139;52.140;11.636;2022-07-10T10:02:56;4.43;;;2.08;;
9424;SDS011;17139;52.140;11.636;2022-07-10T10:05:28;5.30;;;2.03;;
9424;SDS011;17139;52.140;11.636;2022-07-10T10:10:38;5.72;;;1.67;;
9424;SDS011;17139;52.140;11.636;2022-07-10T10:13:10;3.33;;;2.05;;
9424;SDS011;17139;52.140;11.636;2022-07-10T10:15:38;5.13;;;1.80;;
9424;SDS011;17139;52.140;11.636;2022-07-10T10:18:06;3.25;;;1.92;;
9424;SDS011;17139;52.140;11.636;2022-07-10T10:20:35;2.90;;;1.40;;
9424;SDS011;17139;52.140;11.636;2022-07-10T10:23:03;4.47;;;1.23;;
9424;SDS011;17139;52.140;11.636;2022-07-10T10:25:35;1.92;;;1.50;;
9424;SDS011;17139;52.140;11.636;2022-07-10T10:28:04;3.33;;;2.05;;
9424;SDS011;17139;52.140;11.636;2022-07-10T10:30:36;3.58;;;1.50;;
9424;SDS011;17139;52.140;11.636;2022-07-10T10:39:15;3.67;;;1.38;;
9424;SDS011;17139;52.140;11.636;2022-07-10T10:41:48;4.00;;;1.60;;
9424;SDS011;17139;52.140;11.636;2022-07-10T10:47:05;1.75;;;1.02;;
9424;SDS011;17139;52.140;11.636;2022-07-10T10:49:47;3.50;;;1.67;;
9424;SDS011;17139;52.140;11.636;2022-07-10T10:52:27;3.27;;;1.93;;
9424;SDS011;17139;52.140;11.636;2022-07-10T10:55:08;3.67;;;1.42;;
9424;SDS011;17139;52.140;11.636;2022-07-10T10:57:38;1.40;;;1.30;;
9424;SDS011;17139;52.140;11.636;2022-07-10T11:00:11;2.75;;;1.50;;
9424;SDS011;17139;52.140;11.636;2022-07-10T11:02:41;2.85;;;1.63;;
9424;SDS011;17139;52.140;11.636;2022-07-10T11:08:11;5.18;;;1.58;;
9424;SDS011;17139;52.140;11.636;2022-07-10T11:10:41;6.32;;;2.03;;
9424;SDS011;17139;52.140;11.636;2022-07-10T11:13:10;1.80;;;1.50;;
9424;SDS011;17139;52.140;11.636;2022-07-10T11:15:38;5.18;;;1.60;;
9424;SDS011;17139;52.140;11.636;2022-07-10T11:18:08;3.78;;;1.70;;
9424;SDS011;17139;52.140;11.636;2022-07-10T11:20:37;1.83;;;1.40;;
9424;SDS011;17139;52.140;11.636;2022-07-10T11:23:09;1.40;;;1.30;;
9424;SDS011;17139;52.140;11.636;2022-07-10T11:25:59;2.50;;;1.38;;
9424;SDS011;17139;52.140;11.636;2022-07-10T11:28:49;4.05;;;1.50;;
9424;SDS011;17139;52.140;11.636;2022-07-10T11:31:17;3.05;;;1.40;;
9424;SDS011;17139;52.140;11.636;2022-07-10T11:33:45;3.30;;;1.40;;
9424;SDS011;17139;52.140;11.636;2022-07-10T11:36:15;5.93;;;1.60;;
9424;SDS011;17139;52.140;11.636;2022-07-10T11:38:44;4.78;;;1.50;;
9424;SDS011;17139;52.140;11.636;2022-07-10T11:41:13;1.55;;;1.33;;
9424;SDS011;17139;52.140;11.636;2022-07-10T11:43:48;1.83;;;1.50;;
9424;SDS011;17139;52.140;11.636;2022-07-10T11:46:16;3.08;;;1.67;;
9424;SDS011;17139;52.140;11.636;2022-07-10T11:48:45;3.47;;;1.48;;
9424;SDS011;17139;52.140;11.636;2022-07-10T11:53:59;2.38;;;1.63;;
9424;SDS011;17139;52.140;11.636;2022-07-10T11:56:29;5.88;;;1.83;;
9424;SDS011;17139;52.140;11.636;2022-07-10T11:58:59;1.67;;;1.52;;
9424;SDS011;17139;52.140;11.636;2022-07-10T12:01:28;2.60;;;1.60;;
9424;SDS011;17139;52.140;11.636;2022-07-10T12:03:58;3.67;;;1.42;;
9424;SDS011;17139;52.140;11.636;2022-07-10T12:06:27;9.32;;;1.48;;
9424;SDS011;17139;52.140;11.636;2022-07-10T12:08:55;1.45;;;1.10;;
9424;SDS011;17139;52.140;11.636;2022-07-10T12:11:29;3.00;;;1.13;;
9424;SDS011;17139;52.140;11.636;2022-07-10T12:14:08;5.53;;;1.80;;
9424;SDS011;17139;52.140;11.636;2022-07-10T12:16:38;6.55;;;1.67;;
9424;SDS011;17139;52.140;11.636;2022-07-10T12:19:07;3.78;;;1.40;;
9424;SDS011;17139;52.140;11.636;2022-07-10T12:21:37;1.70;;;1.60;;
9424;SDS011;17139;52.140;11.636;2022-07-10T12:24:05;1.63;;;1.50;;
9424;SDS011;17139;52.140;11.636;2022-07-10T12:26:35;2.50;;;1.70;;
9424;SDS011;17139;52.140;11.636;2022-07-10T12:29:04;3.60;;;1.27;;
9424;SDS011;17139;52.140;11.636;2022-07-10T12:31:32;2.35;;;1.30;;
9424;SDS011;17139;52.140;11.636;2022-07-10T12:34:01;5.28;;;1.70;;
9424;SDS011;17139;52.140;11.636;2022-07-10T12:36:42;2.90;;;1.63;;
9424;SDS011;17139;52.140;11.636;2022-07-10T12:39:10;3.50;;;1.52;;
9424;SDS011;17139;52.140;11.636;2022-07-10T12:41:59;2.30;;;1.48;;
9424;SDS011;17139;52.140;11.636;2022-07-10T12:44:34;1.93;;;1.50;;
9424;SDS011;17139;52.140;11.636;2022-07-10T12:47:05;1.70;;;0.95;;
9424;SDS011;17139;52.140;11.636;2022-07-10T12:49:50;1.73;;;1.42;;
9424;SDS011;17139;52.140;11.636;2022-07-10T12:52:21;2.65;;;1.23;;
9424;SDS011;17139;52.140;11.636;2022-07-10T12:55:04;3.72;;;1.50;;
9424;SDS011;17139;52.140;11.636;2022-07-10T12:57:45;3.67;;;1.60;;
9424;SDS011;17139;52.140;11.636;2022-07-10T13:00:14;1.92;;;1.60;;
9424;SDS011;17139;52.140;11.636;2022-07-10T13:02:44;2.53;;;1.52;;
9424;SDS011;17139;52.140;11.636;2022-07-10T13:05:24;1.92;;;1.40;;
9424;SDS011;17139;52.140;11.636;2022-07-10T13:07:53;2.85;;;1.50;;
9424;SDS011;17139;52.140;11.636;2022-07-10T13:10:32;2.58;;;1.63;;
9424;SDS011;17139;52.140;11.636;2022-07-10T13:13:02;2.10;;;1.38;;
9424;SDS011;17139;52.140;11.636;2022-07-10T13:15:30;3.75;;;1.80;;
9424;SDS011;17139;52.140;11.636;2022-07-10T13:17:59;3.35;;;1.40;;
9424;SDS011;17139;52.140;11.636;2022-07-10T13:20:27;2.80;;;1.60;;
9424;SDS011;17139;52.140;11.636;2022-07-10T13:22:54;2.55;;;1.05;;
9424;SDS011;17139;52.140;11.636;2022-07-10T13:25:21;3.15;;;1.40;;
9424;SDS011;17139;52.140;11.636;2022-07-10T13:27:49;1.67;;;1.50;;
9424;SDS011;17139;52.140;11.636;2022-07-10T13:30:18;1.85;;;1.35;;
9424;SDS011;17139;52.140;11.636;2022-07-10T13:32:46;3.15;;;1.80;;
9424;SDS011;17139;52.140;11.636;2022-07-10T13:35:13;4.13;;;1.40;;
9424;SDS011;17139;52.140;11.636;2022-07-10T13:37:40;2.58;;;1.80;;
9424;SDS011;17139;52.140;11.636;2022-07-10T13:40:08;5.22;;;1.98;;
9424;SDS011;17139;52.140;11.636;2022-07-10T13:42:36;1.92;;;1.42;;
9424;SDS011;17139;52.140;11.636;2022-07-10T13:45:04;1.70;;;1.42;;
9424;SDS011;17139;52.140;11.636;2022-07-10T13:47:34;2.78;;;1.63;;
9424;SDS011;17139;52.140;11.636;2022-07-10T13:50:02;1.23;;;1.13;;
9424;SDS011;17139;52.140;11.636;2022-07-10T13:52:30;1.88;;;1.73;;
9424;SDS011;17139;52.140;11.636;2022-07-10T13:54:57;1.67;;;1.42;;
9424;SDS011;17139;52.140;11.636;2022-07-10T13:57:25;1.67;;;1.50;;
9424;SDS011;17139;52.140;11.636;2022-07-10T13:59:52;2.95;;;1.38;;
9424;SDS011;17139;52.140;11.636;2022-07-10T14:02:20;1.83;;;1.33;;
9424;SDS011;17139;52.140;11.636;2022-07-10T14:04:48;2.75;;;1.10;;
9424;SDS011;17139;52.140;11.636;2022-07-10T14:07:16;5.13;;;1.40;;
9424;SDS011;17139;52.140;11.636;2022-07-10T14:09:43;1.77;;;1.35;;
9424;SDS011;17139;52.140;11.636;2022-07-10T14:12:10;1.83;;;1.38;;
9424;SDS011;17139;52.140;11.636;2022-07-10T14:14:38;1.15;;;0.98;;
9424;SDS011;17139;52.140;11.636;2022-07-10T14:17:05;1.55;;;1.20;;
9424;SDS011;17139;52.140;11.636;2022-07-10T14:19:33;4.00;;;1.60;;
9424;SDS011;17139;52.140;11.636;2022-07-10T14:22:03;2.67;;;1.70;;
9424;SDS011;17139;52.140;11.636;2022-07-10T14:24:30;3.08;;;1.13;;
9424;SDS011;17139;52.140;11.636;2022-07-10T14:26:57;3.55;;;1.42;;
9424;SDS011;17139;52.140;11.636;2022-07-10T14:29:25;1.48;;;1.38;;
9424;SDS011;17139;52.140;11.636;2022-07-10T14:31:52;1.83;;;1.40;;
9424;SDS011;17139;52.140;11.636;2022-07-10T14:34:20;2.65;;;1.67;;
9424;SDS011;17139;52.140;11.636;2022-07-10T14:36:49;4.15;;;1.58;;
9424;SDS011;17139;52.140;11.636;2022-07-10T14:39:18;5.50;;;1.73;;
9424;SDS011;17139;52.140;11.636;2022-07-10T14:41:45;1.77;;;1.40;;
9424;SDS011;17139;52.140;11.636;2022-07-10T14:44:12;2.65;;;1.25;;
9424;SDS011;17139;52.140;11.636;2022-07-10T14:46:40;1.40;;;1.30;;
9424;SDS011;17139;52.140;11.636;2022-07-10T14:49:07;2.03;;;1.55;;
9424;SDS011;17139;52.140;11.636;2022-07-10T14:51:35;2.28;;;1.10;;
9424;SDS011;17139;52.140;11.636;2022-07-10T14:54:02;3.90;;;1.40;;
9424;SDS011;17139;52.140;11.636;2022-07-10T14:56:31;4.50;;;1.30;;
9424;SDS011;17139;52.140;11.636;2022-07-10T14:58:58;1.92;;;1.20;;
9424;SDS011;17139;52.140;11.636;2022-07-10T15:01:25;3.17;;;1.30;;
9424;SDS011;17139;52.140;11.636;2022-07-10T15:03:54;2.05;;;1.40;;
9424;SDS011;17139;52.140;11.636;2022-07-10T15:06:24;3.00;;;1.40;;
9424;SDS011;17139;52.140;11.636;2022-07-10T15:08:52;1.33;;;1.17;;
9424;SDS011;17139;52.140;11.636;2022-07-10T15:11:19;1.20;;;1.02;;
9424;SDS011;17139;52.140;11.636;2022-07-10T15:13:50;2.10;;;1.27;;
9424;SDS011;17139;52.140;11.636;2022-07-10T15:16:23;2.30;;;1.23;;